createdAt,value
2022-12-29T00:01:06.679Z,78.67
2022-12-29T00:06:04.699Z,78.53
2022-12-29T00:11:03.659Z,78.52
2022-12-29T00:16:02.966Z,78.73
2022-12-29T00:21:18.375Z,78.29
2022-12-29T00:26:34.422Z,78.83
2022-12-29T00:31:51.464Z,79.00
2022-12-29T00:36:49.597Z,79.74
2022-12-29T00:42:04.919Z,79.90
2022-12-29T00:47:07.816Z,79.72
2022-12-29T00:52:06.459Z,80.13
2022-12-29T00:57:06.376Z,80.54
2022-12-29T01:02:06.964Z,80.38
2022-12-29T01:07:05.261Z,80.35
2022-12-29T01:12:03.273Z,80.24
2022-12-29T01:17:01.146Z,79.50
2022-12-29T01:22:00.342Z,79.78
2022-12-29T01:26:59.472Z,80.09
2022-12-29T01:31:57.339Z,79.92
2022-12-29T01:36:55.213Z,80.28
2022-12-29T01:41:54.421Z,80.91
2022-12-29T01:46:53.605Z,80.42
2022-12-29T01:51:56.481Z,80.20
2022-12-29T01:56:57.832Z,80.53
2022-12-29T02:01:56.466Z,81.92
2022-12-29T02:06:56.050Z,81.44
2022-12-29T02:11:55.449Z,80.94
2022-12-29T02:16:59.505Z,81.30
2022-12-29T02:22:02.412Z,81.43
2022-12-29T02:27:18.257Z,81.38
2022-12-29T02:32:21.906Z,80.88
2022-12-29T02:37:21.805Z,81.39
2022-12-29T02:42:25.388Z,81.10
2022-12-29T02:47:30.304Z,81.70
2022-12-29T02:52:29.996Z,81.48
2022-12-29T02:57:32.175Z,81.33
2022-12-29T03:02:50.190Z,81.41
2022-12-29T03:07:52.835Z,81.29
2022-12-29T03:13:11.668Z,81.66
2022-12-29T03:18:14.140Z,81.67
2022-12-29T03:23:13.673Z,81.60
2022-12-29T03:28:14.138Z,81.44
2022-12-29T03:33:19.197Z,81.11
2022-12-29T03:38:18.407Z,81.39
2022-12-29T03:43:17.851Z,81.92
2022-12-29T03:48:19.036Z,82.93
2022-12-29T03:53:18.101Z,82.15
2022-12-29T03:58:16.923Z,81.81
2022-12-29T04:03:31.570Z,81.70
2022-12-29T04:08:29.437Z,82.91
2022-12-29T04:13:27.442Z,81.93
2022-12-29T04:18:25.333Z,82.46
2022-12-29T04:23:25.234Z,82.86
2022-12-29T04:28:23.451Z,82.90
2022-12-29T04:33:34.078Z,82.84
2022-12-29T04:38:33.910Z,82.45
2022-12-29T04:43:34.858Z,83.05
2022-12-29T04:48:51.218Z,82.86
2022-12-29T04:54:09.068Z,83.80
2022-12-29T04:59:08.401Z,83.92
2022-12-29T05:04:06.650Z,83.11
2022-12-29T05:09:04.574Z,83.19
2022-12-29T05:14:03.807Z,82.49
2022-12-29T05:19:01.832Z,82.48
2022-12-29T05:24:00.980Z,82.72
2022-12-29T05:29:01.019Z,82.57
2022-12-29T05:34:00.351Z,82.40
2022-12-29T05:38:59.762Z,83.44
2022-12-29T05:43:57.809Z,83.76
2022-12-29T05:48:58.547Z,83.94
2022-12-29T05:54:23.944Z,83.91
2022-12-29T05:59:23.021Z,83.95
2022-12-29T06:04:22.163Z,83.16
2022-12-29T06:09:20.176Z,83.06
2022-12-29T06:14:19.771Z,82.53
2022-12-29T06:19:17.710Z,82.81
2022-12-29T06:24:16.271Z,83.74
2022-12-29T06:29:17.784Z,81.01
2022-12-29T06:34:17.231Z,78.59
2022-12-29T06:39:15.365Z,76.47
2022-12-29T06:44:20.374Z,71.60
2022-12-29T06:49:23.823Z,68.37
2022-12-29T06:54:21.758Z,65.80
2022-12-29T06:59:19.908Z,63.63
2022-12-29T07:04:17.708Z,61.58
2022-12-29T07:09:17.043Z,60.90
2022-12-29T07:14:15.290Z,60.87
2022-12-29T07:19:13.381Z,60.04
2022-12-29T07:24:11.828Z,58.61
2022-12-29T07:29:11.076Z,57.43
2022-12-29T07:34:10.438Z,55.39
2022-12-29T07:39:10.784Z,54.81
2022-12-29T07:44:11.946Z,53.02
2022-12-29T07:49:35.975Z,51.97
2022-12-29T07:54:33.859Z,50.38
2022-12-29T07:59:34.591Z,49.84
2022-12-29T08:04:32.434Z,48.58
2022-12-29T08:09:30.274Z,46.42
2022-12-29T08:14:28.165Z,46.60
2022-12-29T08:19:27.420Z,44.64
2022-12-29T08:24:25.625Z,43.77
2022-12-29T08:29:23.752Z,43.48
2022-12-29T08:34:21.669Z,43.00
2022-12-29T08:39:21.040Z,43.03
2022-12-29T08:44:19.153Z,42.83
2022-12-29T08:49:17.412Z,42.38
2022-12-29T08:54:15.248Z,41.21
2022-12-29T08:59:14.920Z,41.94
2022-12-29T09:04:16.686Z,41.39
2022-12-29T09:09:15.857Z,41.08
2022-12-29T09:14:15.290Z,40.19
2022-12-29T09:19:13.092Z,39.98
2022-12-29T09:24:10.936Z,39.74
2022-12-29T09:29:08.817Z,40.60
2022-12-29T09:34:08.040Z,40.71
2022-12-29T09:39:05.947Z,40.07
2022-12-29T09:44:08.155Z,39.80
2022-12-29T09:49:18.059Z,40.13
2022-12-29T09:54:25.128Z,40.71
2022-12-29T09:59:25.899Z,40.15
2022-12-29T10:04:27.785Z,38.86
2022-12-29T10:09:29.072Z,39.85
2022-12-29T10:14:37.931Z,39.76
2022-12-29T10:19:44.980Z,37.54
2022-12-29T10:24:45.264Z,36.80
2022-12-29T10:29:46.893Z,36.84
2022-12-29T10:34:47.736Z,36.36
2022-12-29T10:39:47.552Z,36.20
2022-12-29T10:44:45.432Z,35.65
2022-12-29T10:49:44.900Z,35.89
2022-12-29T10:54:47.459Z,35.84
2022-12-29T10:59:45.398Z,35.75
2022-12-29T11:04:48.651Z,35.37
2022-12-29T11:09:48.330Z,35.95
2022-12-29T11:14:46.143Z,35.73
2022-12-29T11:19:43.965Z,35.42
2022-12-29T11:24:46.075Z,34.97
2022-12-29T11:29:45.489Z,35.62
2022-12-29T11:34:43.305Z,36.89
2022-12-29T11:39:43.173Z,38.44
2022-12-29T11:44:44.436Z,39.18
2022-12-29T11:49:43.653Z,38.25
2022-12-29T11:54:41.591Z,38.67
2022-12-29T11:59:45.605Z,37.89
2022-12-29T12:04:45.429Z,36.93
2022-12-29T12:09:45.868Z,35.61
2022-12-29T12:14:49.063Z,34.84
2022-12-29T12:20:04.991Z,34.67
2022-12-29T12:25:06.475Z,34.51
2022-12-29T12:30:06.327Z,34.30
2022-12-29T12:35:06.494Z,35.08
2022-12-29T12:40:13.547Z,36.95
2022-12-29T12:45:28.706Z,35.28
2022-12-29T12:50:34.242Z,34.17
2022-12-29T12:55:38.974Z,33.95
2022-12-29T13:00:40.615Z,34.63
2022-12-29T13:05:52.469Z,34.58
2022-12-29T13:10:53.840Z,36.62
2022-12-29T13:15:54.500Z,35.86
2022-12-29T13:20:56.272Z,35.71
2022-12-29T13:25:58.566Z,36.98
2022-12-29T13:31:00.099Z,38.66
2022-12-29T13:36:01.765Z,40.89
2022-12-29T13:41:02.785Z,43.16
2022-12-29T13:46:02.151Z,44.71
2022-12-29T13:51:03.237Z,45.67
2022-12-29T13:56:05.319Z,46.92
2022-12-29T14:01:06.105Z,48.19
2022-12-29T14:06:14.828Z,48.72
2022-12-29T14:11:13.791Z,49.78
2022-12-29T14:16:23.259Z,50.49
2022-12-29T14:21:24.443Z,50.81
2022-12-29T14:26:36.186Z,51.46
2022-12-29T14:31:42.092Z,51.67
2022-12-29T14:36:42.286Z,52.54
2022-12-29T14:41:40.803Z,52.84
2022-12-29T14:46:49.974Z,53.71
2022-12-29T14:51:49.899Z,53.88
2022-12-29T14:56:48.014Z,55.04
2022-12-29T15:01:50.460Z,55.56
2022-12-29T15:06:51.245Z,56.03
2022-12-29T15:11:51.930Z,56.75
2022-12-29T15:16:49.892Z,57.16
2022-12-29T15:21:49.412Z,57.25
2022-12-29T15:26:48.360Z,58.17
2022-12-29T15:31:48.408Z,58.33
2022-12-29T15:36:46.270Z,58.69
2022-12-29T15:42:01.541Z,59.28
2022-12-29T15:46:59.735Z,60.28
2022-12-29T15:51:57.685Z,60.42
2022-12-29T15:56:57.419Z,62.59
2022-12-29T16:01:56.004Z,62.48
2022-12-29T16:06:58.622Z,63.74
2022-12-29T16:12:00.004Z,63.37
2022-12-29T16:17:00.180Z,64.52
2022-12-29T16:22:00.128Z,64.77
2022-12-29T16:27:01.538Z,64.96
2022-12-29T16:32:04.003Z,66.29
2022-12-29T16:37:02.464Z,66.58
2022-12-29T16:42:01.896Z,67.12
2022-12-29T16:47:04.789Z,67.15
2022-12-29T16:52:03.306Z,68.89
2022-12-29T16:57:02.650Z,69.30
2022-12-29T17:02:02.378Z,69.60
2022-12-29T17:07:00.548Z,70.12
2022-12-29T17:12:08.373Z,69.96
2022-12-29T17:17:13.401Z,70.25
2022-12-29T17:22:12.547Z,70.51
2022-12-29T17:27:20.886Z,70.25
2022-12-29T17:32:20.563Z,70.48
2022-12-29T17:37:28.212Z,70.24
2022-12-29T17:42:26.126Z,71.84
2022-12-29T17:47:25.326Z,71.86
2022-12-29T17:52:23.236Z,71.21
2022-12-29T17:57:22.186Z,71.21
2022-12-29T18:02:24.939Z,71.89
2022-12-29T18:07:30.982Z,72.36
2022-12-29T18:12:34.415Z,72.34
2022-12-29T18:17:32.303Z,72.18
2022-12-29T18:22:32.311Z,72.52
2022-12-29T18:27:30.439Z,73.49
2022-12-29T18:32:28.384Z,73.74
2022-12-29T18:37:26.248Z,72.97
2022-12-29T18:42:25.428Z,73.52
2022-12-29T18:47:23.366Z,74.65
2022-12-29T18:52:21.222Z,74.96
2022-12-29T18:57:19.358Z,75.13
2022-12-29T19:02:18.807Z,74.94
2022-12-29T19:07:16.867Z,74.98
2022-12-29T19:12:16.395Z,75.26
2022-12-29T19:17:14.553Z,75.58
2022-12-29T19:22:13.760Z,76.36
2022-12-29T19:27:11.761Z,76.82
2022-12-29T19:32:09.602Z,77.05
2022-12-29T19:37:07.543Z,76.47
2022-12-29T19:42:06.955Z,76.62
2022-12-29T19:47:04.984Z,76.77
2022-12-29T19:52:02.910Z,77.00
2022-12-29T19:57:00.808Z,77.03
2022-12-29T20:02:00.326Z,77.03
2022-12-29T20:06:58.417Z,78.34
2022-12-29T20:11:56.279Z,77.85
2022-12-29T20:17:10.866Z,79.59
2022-12-29T20:22:11.604Z,80.86
2022-12-29T20:27:10.465Z,79.96
2022-12-29T20:32:08.903Z,79.76
2022-12-29T20:37:06.943Z,79.62
2022-12-29T20:42:06.515Z,79.89
2022-12-29T20:47:06.071Z,79.88
2022-12-29T20:52:06.654Z,80.83
2022-12-29T20:57:06.337Z,79.95
2022-12-29T21:02:04.755Z,81.56
2022-12-29T21:07:02.789Z,81.71
2022-12-29T21:12:02.920Z,80.86
2022-12-29T21:17:02.495Z,81.06
2022-12-29T21:22:00.395Z,81.31
2022-12-29T21:26:58.249Z,80.23
2022-12-29T21:31:58.692Z,80.76
2022-12-29T21:37:00.271Z,82.31
2022-12-29T21:42:00.411Z,81.89
2022-12-29T21:46:58.586Z,83.59
2022-12-29T21:51:57.737Z,83.31
2022-12-29T21:56:57.004Z,82.53
2022-12-29T22:02:12.137Z,83.41
2022-12-29T22:07:28.103Z,84.13
2022-12-29T22:12:44.984Z,83.19
2022-12-29T22:17:48.569Z,82.78
2022-12-29T22:22:47.230Z,83.25
2022-12-29T22:27:46.803Z,83.14
2022-12-29T22:32:50.186Z,82.84
2022-12-29T22:37:47.999Z,83.15
2022-12-29T22:42:49.739Z,82.77
2022-12-29T22:47:51.089Z,82.86
2022-12-29T22:52:49.821Z,81.94
2022-12-29T22:57:49.166Z,82.95
2022-12-29T23:02:47.252Z,84.56
2022-12-29T23:07:45.339Z,84.24
2022-12-29T23:12:43.205Z,83.36
2022-12-29T23:17:42.648Z,82.84
2022-12-29T23:22:40.573Z,84.46
2022-12-29T23:27:38.486Z,82.75
2022-12-29T23:32:37.355Z,83.96
2022-12-29T23:37:36.811Z,84.25
2022-12-29T23:42:34.750Z,83.19
2022-12-29T23:47:32.581Z,83.70
2022-12-29T23:52:30.431Z,84.33
2022-12-29T23:57:29.638Z,84.50
